Time;durP1;ratioP1;P1;durP2;ratioP2;P2;SDS_P1;SDS_P2;PMS_P1;PMS_P2;Temp;Humidity;BMP_temperature;BMP_pressure;BME280_temperature;BME280_humidity;BME280_pressure;Samples;Min_cycle;Max_cycle;Signal;HPM_P1;HPM_P2
2021/07/27 00:01:19;;;;;;;8.32;7.50;;;21.80;67.70;;;;;;5066574;28;20556;-76
2021/07/27 00:03:45;;;;;;;9.90;8.88;;;21.90;68.00;;;;;;5065862;28;20036;-77
2021/07/27 00:06:11;;;;;;;9.02;8.00;;;21.80;67.80;;;;;;5066905;28;20037;-76
2021/07/27 00:08:38;;;;;;;10.38;8.20;;;21.80;68.40;;;;;;5065932;28;20135;-77
2021/07/27 00:11:06;;;;;;;11.50;8.70;;;21.80;67.90;;;;;;5066487;28;20324;-76
2021/07/27 00:13:32;;;;;;;14.68;8.70;;;21.80;68.20;;;;;;5066176;28;20035;-75
2021/07/27 00:15:58;;;;;;;9.55;8.63;;;21.70;67.80;;;;;;5065993;28;20068;-76
2021/07/27 00:18:24;;;;;;;10.35;8.75;;;21.70;67.90;;;;;;5064576;28;20485;-76
2021/07/27 00:20:50;;;;;;;9.30;8.40;;;21.70;67.90;;;;;;5065367;28;20024;-77
2021/07/27 00:23:16;;;;;;;11.75;8.43;;;21.70;68.00;;;;;;5064263;28;20025;-76
2021/07/27 00:25:43;;;;;;;10.70;8.55;;;21.70;68.00;;;;;;5066159;28;20243;-76
2021/07/27 00:28:10;;;;;;;10.25;8.95;;;21.70;68.10;;;;;;5066116;28;20127;-75
2021/07/27 00:30:37;;;;;;;11.57;8.98;;;21.60;68.00;;;;;;5066664;28;20021;-76
2021/07/27 00:33:03;;;;;;;9.30;8.00;;;21.60;68.00;;;;;;5064209;28;20610;-75
2021/07/27 00:35:31;;;;;;;10.85;8.48;;;21.60;68.00;;;;;;5065941;28;20123;-75
2021/07/27 00:38:20;;;;;;;9.40;8.50;;;21.60;68.10;;;;;;5065628;28;20349;-77
2021/07/27 00:40:46;;;;;;;8.52;7.78;;;21.60;68.20;;;;;;5066149;28;20391;-77
2021/07/27 00:43:17;;;;;;;9.10;8.27;;;21.60;68.20;;;;;;5065733;28;20128;-76
2021/07/27 00:45:43;;;;;;;10.05;9.05;;;21.60;68.20;;;;;;5066220;28;20650;-76
2021/07/27 00:48:10;;;;;;;9.80;8.82;;;21.50;68.10;;;;;;5065962;28;20032;-77
2021/07/27 00:50:37;;;;;;;9.95;8.95;;;21.50;68.20;;;;;;5065871;28;20032;-77
2021/07/27 00:53:04;;;;;;;9.90;8.90;;;21.50;68.20;;;;;;5066363;28;20546;-77
2021/07/27 00:55:31;;;;;;;10.95;9.27;;;21.50;68.30;;;;;;5064593;28;20033;-76
2021/07/27 00:57:57;;;;;;;9.13;8.32;;;21.50;68.30;;;;;;5066135;28;20029;-76
2021/07/27 01:00:24;;;;;;;10.35;9.25;;;21.50;68.40;;;;;;5065335;28;20029;-76
2021/07/27 01:02:51;;;;;;;12.07;9.50;;;21.50;68.40;;;;;;5064876;28;20032;-77
2021/07/27 01:05:18;;;;;;;10.88;8.82;;;21.40;68.30;;;;;;5065997;28;20119;-75
2021/07/27 01:07:44;;;;;;;10.05;9.05;;;21.40;68.40;;;;;;5064167;28;20052;-76
2021/07/27 01:10:13;;;;;;;11.75;9.20;;;21.40;68.40;;;;;;5065380;28;20028;-76
2021/07/27 01:12:40;;;;;;;12.60;9.55;;;21.40;68.50;;;;;;5064476;28;20036;-76
2021/07/27 01:15:07;;;;;;;10.20;9.20;;;21.40;68.50;;;;;;5064124;28;20028;-76
2021/07/27 01:17:41;;;;;;;10.27;9.02;;;21.40;68.60;;;;;;5064212;28;20086;-77
2021/07/27 01:39:30;;;;;;;9.32;8.50;;;21.20;68.70;;;;;;5070433;28;20033;-74
2021/07/27 01:42:08;;;;;;;10.35;9.30;;;21.20;68.70;;;;;;5071246;28;20041;-77
2021/07/27 01:44:45;;;;;;;12.65;9.07;;;21.20;68.80;;;;;;5069499;28;20035;-76
2021/07/27 01:47:18;;;;;;;11.20;9.35;;;21.20;69.00;;;;;;5058058;28;20057;-77
2021/07/27 01:49:45;;;;;;;10.10;9.13;;;21.20;69.00;;;;;;5052757;28;20492;-77
2021/07/27 01:52:15;;;;;;;10.15;9.15;;;21.20;69.00;;;;;;5053719;28;20029;-78
2021/07/27 01:54:51;;;;;;;9.40;8.35;;;21.20;69.10;;;;;;5053515;28;20036;-76
2021/07/27 01:57:17;;;;;;;10.23;9.23;;;21.20;69.10;;;;;;5068547;28;20138;-76
2021/07/27 01:59:57;;;;;;;11.95;9.63;;;21.20;69.10;;;;;;5052473;28;20056;-77
2021/07/27 02:02:24;;;;;;;10.25;9.18;;;21.20;69.30;;;;;;5052770;28;20080;-76
2021/07/27 02:04:50;;;;;;;12.98;9.45;;;21.10;69.00;;;;;;5053669;28;20031;-77
2021/07/27 02:07:16;;;;;;;9.70;8.65;;;21.10;69.10;;;;;;5053175;28;20104;-77
2021/07/27 02:09:44;;;;;;;10.32;9.25;;;21.10;69.10;;;;;;5053406;28;20040;-75
2021/07/27 02:12:18;;;;;;;10.50;9.18;;;21.10;69.20;;;;;;5052968;28;20033;-77
2021/07/27 02:15:04;;;;;;;10.32;9.35;;;21.10;69.20;;;;;;5052165;28;20124;-77
2021/07/27 02:17:34;;;;;;;9.48;8.57;;;21.10;69.20;;;;;;5053224;28;20115;-75
2021/07/27 02:20:01;;;;;;;10.60;9.57;;;21.00;69.10;;;;;;5053533;28;20057;-78
2021/07/27 02:22:32;;;;;;;11.38;9.52;;;21.00;69.10;;;;;;5051302;28;20029;-76
2021/07/27 02:24:57;;;;;;;10.05;8.98;;;21.00;69.20;;;;;;5053111;28;20048;-76
2021/07/27 02:27:28;;;;;;;9.75;8.75;;;21.00;69.30;;;;;;5068486;28;20071;-76
2021/07/27 02:29:54;;;;;;;10.93;9.00;;;20.90;69.20;;;;;;5052700;28;20040;-76
2021/07/27 02:32:20;;;;;;;10.90;9.23;;;20.90;69.20;;;;;;5052722;28;20036;-77
2021/07/27 02:34:46;;;;;;;9.98;8.95;;;20.90;69.30;;;;;;5052356;28;20033;-77
2021/07/27 02:37:12;;;;;;;11.77;9.60;;;20.90;69.30;;;;;;5053104;28;20158;-78
2021/07/27 02:39:38;;;;;;;11.00;9.05;;;20.80;69.20;;;;;;5052588;28;20412;-77
2021/07/27 02:42:04;;;;;;;13.90;9.18;;;20.90;69.40;;;;;;5052632;28;20032;-77
2021/07/27 02:44:30;;;;;;;11.77;10.10;;;20.80;69.30;;;;;;5052284;28;20492;-76
2021/07/27 02:46:56;;;;;;;10.20;9.25;;;20.80;69.30;;;;;;5052644;28;20044;-75
2021/07/27 02:49:22;;;;;;;10.20;9.07;;;20.80;69.40;;;;;;5052743;28;20122;-76
2021/07/27 02:51:51;;;;;;;10.13;9.13;;;20.80;69.50;;;;;;5068212;28;20120;-77
2021/07/27 02:54:18;;;;;;;10.20;8.65;;;20.70;69.40;;;;;;5067935;28;20563;-76
2021/07/27 02:56:44;;;;;;;11.68;9.38;;;20.70;69.40;;;;;;5052428;28;20040;-77
2021/07/27 02:59:10;;;;;;;9.90;8.85;;;20.70;69.40;;;;;;5051270;28;20078;-77
2021/07/27 03:01:36;;;;;;;11.60;9.38;;;20.70;69.50;;;;;;5052077;28;20037;-76
2021/07/27 03:04:02;;;;;;;10.88;8.77;;;20.60;69.40;;;;;;5052045;28;20031;-76
2021/07/27 03:06:28;;;;;;;10.15;9.13;;;20.60;69.40;;;;;;5052582;28;20454;-77
2021/07/27 03:11:21;;;;;;;9.85;8.95;;;20.50;69.40;;;;;;5052259;28;20078;-78
2021/07/27 03:13:47;;;;;;;9.77;8.88;;;20.50;69.40;;;;;;5051928;28;20032;-76
2021/07/27 03:16:21;;;;;;;9.20;8.27;;;20.50;69.50;;;;;;5052270;28;20124;-77
2021/07/27 03:18:51;;;;;;;11.82;9.38;;;20.40;69.40;;;;;;5050472;28;20029;-77
2021/07/27 03:21:19;;;;;;;10.93;8.45;;;20.40;69.40;;;;;;5051993;28;20035;-76
2021/07/27 03:23:46;;;;;;;10.45;9.18;;;20.40;69.50;;;;;;5052257;28;20040;-77
2021/07/27 03:26:12;;;;;;;10.10;9.10;;;20.40;69.60;;;;;;5052076;28;20485;-77
2021/07/27 03:28:40;;;;;;;9.93;8.93;;;20.30;69.40;;;;;;5052020;28;20028;-78
2021/07/27 03:31:06;;;;;;;9.30;8.40;;;20.30;69.40;;;;;;5051878;28;20033;-77
2021/07/27 03:33:32;;;;;;;10.30;9.23;;;20.30;69.50;;;;;;5033573;28;20098;-76
2021/07/27 03:35:58;;;;;;;8.88;8.05;;;20.30;69.60;;;;;;5051615;28;20029;-77
2021/07/27 03:38:24;;;;;;;9.32;8.50;;;20.30;69.60;;;;;;5051661;28;20029;-77
2021/07/27 03:40:50;;;;;;;9.35;8.50;;;20.20;69.50;;;;;;5051660;28;20496;-77
2021/07/27 03:43:16;;;;;;;10.25;9.20;;;20.20;69.50;;;;;;5051607;28;20037;-78
2021/07/27 03:45:42;;;;;;;10.82;8.55;;;20.20;69.60;;;;;;5051384;28;20032;-78
2021/07/27 03:48:08;;;;;;;9.07;8.23;;;20.20;69.60;;;;;;5051633;28;20132;-78
2021/07/27 03:50:34;;;;;;;10.80;8.95;;;20.10;69.50;;;;;;5067017;28;20079;-77
2021/07/27 03:53:00;;;;;;;11.43;9.18;;;20.10;69.50;;;;;;5051563;28;20033;-76
2021/07/27 03:55:26;;;;;;;11.32;8.52;;;20.10;69.60;;;;;;5051195;28;20114;-75
2021/07/27 03:57:53;;;;;;;9.88;8.45;;;20.10;69.60;;;;;;5051594;28;20032;-77
2021/07/27 04:00:19;;;;;;;9.30;8.23;;;20.10;69.60;;;;;;5051183;28;20361;-77
2021/07/27 04:02:45;;;;;;;10.52;9.23;;;20.10;69.70;;;;;;5066457;28;20116;-78
2021/07/27 04:05:11;;;;;;;9.93;8.93;;;20.00;69.60;;;;;;5051392;28;20033;-77
2021/07/27 04:07:37;;;;;;;10.82;8.18;;;20.00;69.60;;;;;;5051448;28;20446;-76
2021/07/27 04:10:05;;;;;;;9.45;8.45;;;20.00;69.60;;;;;;5051108;28;20021;-76
2021/07/27 04:12:31;;;;;;;9.60;8.20;;;19.90;69.40;;;;;;5050831;28;20025;-76
2021/07/27 04:14:57;;;;;;;9.52;8.63;;;20.00;69.60;;;;;;5051371;28;20029;-77
2021/07/27 04:17:23;;;;;;;9.48;8.10;;;19.90;69.50;;;;;;5049552;28;20089;-78
2021/07/27 04:19:50;;;;;;;9.27;8.27;;;19.90;69.50;;;;;;5066457;28;20029;-77
2021/07/27 04:22:15;;;;;;;9.20;8.25;;;19.80;69.60;;;;;;5066293;28;20044;-77
2021/07/27 04:24:41;;;;;;;9.43;8.45;;;19.80;69.50;;;;;;5051209;28;20029;-76
2021/07/27 04:27:07;;;;;;;9.40;8.43;;;19.80;69.50;;;;;;5050758;28;20036;-77
2021/07/27 04:29:34;;;;;;;13.23;8.45;;;19.70;69.40;;;;;;5033144;28;20384;-75
2021/07/27 04:32:00;;;;;;;10.60;8.57;;;19.70;69.40;;;;;;5050930;28;20025;-77
2021/07/27 04:34:26;;;;;;;9.48;8.48;;;19.70;69.50;;;;;;5049105;28;20141;-78
2021/07/27 04:36:52;;;;;;;8.98;8.13;;;19.60;69.30;;;;;;5049199;28;20124;-77
2021/07/27 04:39:18;;;;;;;8.70;7.75;;;19.60;69.40;;;;;;5050652;28;20122;-76
2021/07/27 04:41:44;;;;;;;9.07;8.15;;;19.70;69.60;;;;;;5050632;28;20025;-77
2021/07/27 04:44:10;;;;;;;8.98;8.07;;;19.60;69.40;;;;;;5051092;28;20040;-76
2021/07/27 04:46:36;;;;;;;8.95;8.05;;;19.60;69.50;;;;;;5050426;28;20124;-79
2021/07/27 04:49:02;;;;;;;9.10;7.60;;;19.60;69.50;;;;;;5063864;28;20033;-78
2021/07/27 04:51:31;;;;;;;8.90;7.88;;;19.60;69.60;;;;;;5068233;28;20482;-77
2021/07/27 04:54:04;;;;;;;9.68;8.05;;;19.50;69.50;;;;;;5068056;28;20024;-77
2021/07/27 04:56:34;;;;;;;10.48;8.30;;;19.50;69.50;;;;;;5071551;28;20048;-76
2021/07/27 04:59:01;;;;;;;9.65;8.65;;;19.50;69.50;;;;;;5068125;28;20044;-77
2021/07/27 05:01:26;;;;;;;9.93;8.70;;;19.50;69.50;;;;;;5067780;28;20483;-77
2021/07/27 05:03:55;;;;;;;9.07;8.27;;;19.50;69.50;;;;;;5063924;28;20275;-76
2021/07/27 05:06:22;;;;;;;9.27;8.38;;;19.40;69.40;;;;;;5068376;28;20071;-77
2021/07/27 05:08:48;;;;;;;9.90;9.05;;;19.40;69.40;;;;;;5071503;28;20053;-76
2021/07/27 05:11:15;;;;;;;11.48;8.48;;;19.40;69.40;;;;;;5078256;28;20059;-76
2021/07/27 05:13:41;;;;;;;9.55;8.55;;;19.40;69.40;;;;;;5078861;28;20112;-76
2021/07/27 05:16:07;;;;;;;11.35;8.20;;;19.50;69.70;;;;;;5061828;28;20131;-75
2021/07/27 05:18:33;;;;;;;8.57;7.80;;;19.40;69.50;;;;;;5078949;28;20048;-75
2021/07/27 05:20:59;;;;;;;9.85;7.85;;;19.40;69.50;;;;;;5079558;28;20239;-75
2021/07/27 05:23:26;;;;;;;8.82;8.02;;;19.50;69.70;;;;;;5079205;28;20032;-75
2021/07/27 05:25:52;;;;;;;9.20;7.90;;;19.50;69.70;;;;;;5078292;28;20035;-76
2021/07/27 05:28:18;;;;;;;10.20;8.90;;;19.50;70.20;;;;;;5078401;28;20032;-76
2021/07/27 05:30:44;;;;;;;8.93;8.02;;;19.50;69.60;;;;;;5078003;28;20028;-77
2021/07/27 05:33:11;;;;;;;8.55;7.68;;;19.60;69.80;;;;;;5078024;28;20403;-76
2021/07/27 05:35:37;;;;;;;8.50;7.65;;;19.60;69.80;;;;;;5073359;28;20036;-75
2021/07/27 05:38:04;;;;;;;8.20;7.32;;;19.60;69.70;;;;;;5077443;28;20029;-77
2021/07/27 05:40:31;;;;;;;8.23;7.43;;;19.60;69.70;;;;;;5079898;28;20037;-76
2021/07/27 05:42:58;;;;;;;7.38;6.68;;;19.70;69.80;;;;;;5074499;28;20021;-78
2021/07/27 05:45:25;;;;;;;7.93;7.13;;;19.70;69.80;;;;;;5044612;28;20025;-77
2021/07/27 05:47:54;;;;;;;8.13;7.40;;;19.80;70.00;;;;;;5081032;28;20380;-75
2021/07/27 05:50:21;;;;;;;8.48;6.95;;;19.80;70.00;;;;;;5073245;28;20100;-75
2021/07/27 05:52:47;;;;;;;10.52;7.38;;;19.80;70.20;;;;;;5075792;28;20233;-73
2021/07/27 05:55:13;;;;;;;9.65;6.80;;;19.90;70.40;;;;;;5067360;28;20044;-74
2021/07/27 05:57:39;;;;;;;9.90;6.30;;;19.90;70.50;;;;;;5089049;28;20116;-78
2021/07/27 06:00:06;;;;;;;13.32;6.60;;;20.00;70.70;;;;;;5073378;28;20062;-73
2021/07/27 06:02:35;;;;;;;8.02;7.22;;;20.10;70.90;;;;;;5065189;28;20036;-74
2021/07/27 06:05:00;;;;;;;10.02;7.07;;;20.10;70.90;;;;;;5080919;28;20027;-74
2021/07/27 06:07:29;;;;;;;9.35;6.43;;;20.10;70.90;;;;;;5072226;28;20052;-75
2021/07/27 06:09:55;;;;;;;10.68;7.40;;;20.20;71.00;;;;;;5079426;28;20044;-78
2021/07/27 06:12:21;;;;;;;7.50;6.13;;;20.20;71.00;;;;;;5078168;28;20039;-74
2021/07/27 06:14:47;;;;;;;8.98;6.60;;;20.30;71.20;;;;;;5071518;28;20029;-75
2021/07/27 06:17:13;;;;;;;12.32;6.65;;;20.30;71.20;;;;;;5067646;28;20416;-73
2021/07/27 06:19:39;;;;;;;10.95;6.18;;;20.30;71.20;;;;;;5063591;28;20029;-75
2021/07/27 06:22:05;;;;;;;12.32;7.07;;;20.30;71.30;;;;;;5055436;28;20436;-74
2021/07/27 06:24:31;;;;;;;9.10;6.80;;;20.30;71.40;;;;;;5055299;28;20110;-75
2021/07/27 06:26:57;;;;;;;11.02;6.68;;;20.30;71.40;;;;;;5064519;28;20043;-74
2021/07/27 06:29:23;;;;;;;11.13;6.57;;;20.30;71.50;;;;;;5064910;28;20071;-75
2021/07/27 06:31:49;;;;;;;6.78;6.10;;;20.40;71.80;;;;;;5067437;28;20112;-74
2021/07/27 06:34:15;;;;;;;11.35;6.60;;;20.40;71.90;;;;;;5068022;28;20457;-75
2021/07/27 06:36:41;;;;;;;14.43;7.55;;;20.40;71.80;;;;;;5067847;28;20041;-75
2021/07/27 06:39:07;;;;;;;13.57;7.68;;;20.50;72.00;;;;;;5068668;28;20081;-76
2021/07/27 06:41:33;;;;;;;8.13;6.70;;;20.50;72.00;;;;;;5067031;28;20458;-74
2021/07/27 06:43:59;;;;;;;8.77;6.95;;;20.70;72.20;;;;;;5068572;28;20032;-74
2021/07/27 06:46:28;;;;;;;8.40;7.30;;;20.80;72.20;;;;;;5067779;28;20158;-74
2021/07/27 06:48:54;;;;;;;8.48;6.05;;;20.80;72.20;;;;;;5068174;28;20455;-75
2021/07/27 06:51:20;;;;;;;7.40;6.25;;;20.90;72.40;;;;;;5046155;28;20081;-74
2021/07/27 06:53:48;;;;;;;8.35;6.38;;;21.00;72.50;;;;;;5064017;28;20032;-74
2021/07/27 06:56:14;;;;;;;10.75;5.97;;;21.00;72.30;;;;;;5046872;28;20041;-74
2021/07/27 06:58:41;;;;;;;8.32;6.40;;;21.10;72.40;;;;;;5060084;28;20050;-74
2021/07/27 07:01:09;;;;;;;10.63;7.10;;;21.10;72.30;;;;;;5066290;28;20054;-74
2021/07/27 07:03:40;;;;;;;12.18;6.88;;;21.00;72.10;;;;;;5067484;28;20241;-74
2021/07/27 07:06:07;;;;;;;9.10;7.50;;;21.10;72.30;;;;;;5065954;28;20032;-75
2021/07/27 07:08:33;;;;;;;9.07;7.93;;;21.00;72.20;;;;;;5067315;28;20094;-74
2021/07/27 07:11:01;;;;;;;12.05;8.07;;;21.00;72.20;;;;;;5067395;28;20078;-74
2021/07/27 07:13:27;;;;;;;12.23;8.77;;;20.90;72.10;;;;;;5067532;28;20032;-74
2021/07/27 07:15:54;;;;;;;11.77;7.78;;;20.90;72.20;;;;;;5065726;28;20051;-74
2021/07/27 07:18:23;;;;;;;11.57;8.45;;;20.90;72.20;;;;;;5066963;28;20430;-73
2021/07/27 07:20:51;;;;;;;10.82;8.18;;;20.80;72.20;;;;;;5067039;28;20029;-74
2021/07/27 07:23:21;;;;;;;10.82;8.23;;;20.80;72.30;;;;;;5067357;28;20037;-77
2021/07/27 07:25:50;;;;;;;11.73;8.85;;;20.80;72.40;;;;;;5067087;28;20039;-75
2021/07/27 07:28:17;;;;;;;11.35;8.93;;;20.70;72.40;;;;;;5067157;28;20489;-75
2021/07/27 07:30:43;;;;;;;14.23;8.88;;;20.70;72.40;;;;;;5065554;28;20064;-75
2021/07/27 07:33:09;;;;;;;13.85;9.32;;;20.70;72.50;;;;;;5066924;28;20056;-74
2021/07/27 07:35:37;;;;;;;10.23;8.25;;;20.70;72.60;;;;;;5064617;28;20502;-74
2021/07/27 07:38:03;;;;;;;13.13;8.95;;;20.60;72.60;;;;;;5065536;28;20113;-75
2021/07/27 07:40:30;;;;;;;11.40;8.95;;;20.60;72.80;;;;;;5067191;28;20480;-76
2021/07/27 07:43:00;;;;;;;11.30;9.40;;;20.60;72.90;;;;;;5066606;28;20039;-75
2021/07/27 07:45:27;;;;;;;14.32;9.02;;;20.60;73.10;;;;;;5049228;28;20126;-74
2021/07/27 07:47:54;;;;;;;15.65;9.95;;;20.60;73.20;;;;;;5066486;28;20040;-76
2021/07/27 07:50:21;;;;;;;10.85;9.75;;;20.60;73.20;;;;;;5066889;28;20025;-75
2021/07/27 07:52:55;;;;;;;15.75;11.05;;;20.70;73.50;;;;;;5066657;28;20056;-75
2021/07/27 07:55:21;;;;;;;13.35;9.20;;;20.60;73.30;;;;;;5066878;28;20380;-75
2021/07/27 07:57:47;;;;;;;12.45;9.80;;;20.70;73.50;;;;;;5064889;28;20032;-75
2021/07/27 08:00:14;;;;;;;10.98;8.93;;;20.70;73.60;;;;;;5066669;28;20047;-75
2021/07/27 08:02:40;;;;;;;10.73;8.73;;;20.80;73.90;;;;;;5066073;28;20475;-74
2021/07/27 08:05:06;;;;;;;11.23;9.30;;;20.90;74.00;;;;;;5066364;28;20104;-74
2021/07/27 08:07:34;;;;;;;14.82;8.77;;;21.00;74.10;;;;;;5064349;28;20052;-74
2021/07/27 08:10:00;;;;;;;13.23;9.40;;;21.10;74.00;;;;;;5066359;28;20437;-74
2021/07/27 08:12:26;;;;;;;10.77;7.97;;;21.20;73.90;;;;;;5066457;28;20024;-77
2021/07/27 08:14:52;;;;;;;10.15;8.18;;;21.30;74.00;;;;;;5065139;28;20362;-73
2021/07/27 08:17:18;;;;;;;10.30;8.55;;;21.40;74.10;;;;;;5067273;28;20039;-73
2021/07/27 08:19:44;;;;;;;9.77;8.57;;;21.50;74.00;;;;;;5066685;28;20032;-77
2021/07/27 08:22:10;;;;;;;13.43;7.90;;;21.60;73.80;;;;;;5065193;28;20059;-74
2021/07/27 08:24:36;;;;;;;11.95;8.02;;;21.70;73.70;;;;;;5066839;28;20028;-74
2021/07/27 08:27:09;;;;;;;8.80;7.18;;;21.80;73.70;;;;;;5066233;28;20028;-74
2021/07/27 08:29:39;;;;;;;8.00;6.60;;;21.90;73.60;;;;;;5064923;28;20388;-77
2021/07/27 08:32:09;;;;;;;8.98;6.65;;;22.00;73.30;;;;;;5064831;28;20059;-73
2021/07/27 08:34:39;;;;;;;8.02;6.93;;;22.20;73.30;;;;;;5065126;28;20036;-74
2021/07/27 08:37:05;;;;;;;10.73;6.80;;;22.40;73.30;;;;;;5064973;28;20044;-75
2021/07/27 08:39:31;;;;;;;9.13;6.80;;;22.60;73.10;;;;;;5064176;28;20115;-72
2021/07/27 08:42:01;;;;;;;9.43;5.90;;;22.90;73.20;;;;;;5064926;28;20037;-73
2021/07/27 08:44:35;;;;;;;6.15;5.45;;;23.30;72.90;;;;;;5064368;28;20029;-73
2021/07/27 08:47:03;;;;;;;10.15;6.35;;;23.80;72.50;;;;;;5065956;28;20112;-73
2021/07/27 08:49:30;;;;;;;10.38;6.00;;;24.20;72.00;;;;;;5064193;28;20063;-73
2021/07/27 08:51:57;;;;;;;9.30;5.57;;;24.40;71.50;;;;;;5064440;28;20028;-73
2021/07/27 08:54:23;;;;;;;7.50;4.75;;;24.60;71.00;;;;;;5064381;28;20028;-73
2021/07/27 08:56:51;;;;;;;8.65;4.70;;;24.70;70.60;;;;;;5065005;28;20045;-74
2021/07/27 08:59:18;;;;;;;6.97;5.05;;;24.70;70.20;;;;;;5065768;28;20557;-73
2021/07/27 09:01:45;;;;;;;6.88;4.72;;;24.60;70.00;;;;;;5048212;28;20052;-74
2021/07/27 09:04:11;;;;;;;5.00;4.47;;;24.50;69.70;;;;;;5063888;28;20028;-75
2021/07/27 09:06:37;;;;;;;6.50;5.05;;;24.30;69.40;;;;;;5065584;28;20055;-73
2021/07/27 09:09:08;;;;;;;6.70;4.95;;;24.20;69.90;;;;;;5065299;28;20504;-74
2021/07/27 09:11:48;;;;;;;8.15;5.15;;;24.10;69.30;;;;;;5065431;28;20028;-73
2021/07/27 09:14:16;;;;;;;7.80;5.35;;;23.90;69.00;;;;;;5065615;28;20036;-74
2021/07/27 09:16:43;;;;;;;11.82;5.63;;;23.70;69.00;;;;;;5065608;28;20036;-73
2021/07/27 09:19:09;;;;;;;7.22;6.00;;;23.50;68.90;;;;;;5063629;28;20112;-74
2021/07/27 09:21:35;;;;;;;9.07;5.72;;;23.30;68.90;;;;;;5064102;28;20509;-74
2021/07/27 09:24:01;;;;;;;11.10;7.15;;;23.10;69.10;;;;;;5063838;28;20090;-73
2021/07/27 09:26:27;;;;;;;8.63;6.65;;;23.00;69.50;;;;;;5064584;28;20495;-75
2021/07/27 09:29:04;;;;;;;9.98;6.00;;;22.90;69.70;;;;;;5063822;28;20025;-73
2021/07/27 09:31:30;;;;;;;10.18;6.22;;;22.80;69.90;;;;;;5065785;28;20037;-76
2021/07/27 09:33:56;;;;;;;9.82;6.32;;;22.70;69.90;;;;;;5065162;28;20039;-74
2021/07/27 09:36:25;;;;;;;9.70;5.78;;;22.70;70.00;;;;;;5056691;28;20412;-73
2021/07/27 09:39:03;;;;;;;9.23;6.10;;;22.80;70.20;;;;;;5063530;28;20020;-74
2021/07/27 09:41:30;;;;;;;10.38;6.43;;;22.90;70.40;;;;;;5044677;28;20055;-73
2021/07/27 09:43:59;;;;;;;8.68;6.57;;;23.00;70.40;;;;;;5059106;28;20073;-74
2021/07/27 09:46:26;;;;;;;11.90;6.38;;;23.10;70.40;;;;;;5065574;28;20063;-74
2021/07/27 09:48:53;;;;;;;7.43;6.60;;;23.30;71.10;;;;;;5064050;28;20028;-75
2021/07/27 09:51:19;;;;;;;8.10;5.50;;;23.40;70.40;;;;;;5051473;28;20037;-74
2021/07/27 09:53:46;;;;;;;11.27;5.35;;;23.50;70.30;;;;;;5061964;28;20032;-76
2021/07/27 09:56:12;;;;;;;7.82;5.22;;;23.60;70.20;;;;;;5084051;28;20036;-74
2021/07/27 09:58:42;;;;;;;7.35;5.13;;;23.70;70.30;;;;;;5068649;28;20111;-74
2021/07/27 10:01:20;;;;;;;9.25;5.90;;;23.80;70.30;;;;;;5068770;28;20033;-75
2021/07/27 10:03:57;;;;;;;7.72;6.22;;;23.90;70.40;;;;;;5068555;28;20119;-74
2021/07/27 10:06:35;;;;;;;6.68;5.43;;;24.10;70.40;;;;;;5068871;28;20523;-74
2021/07/27 10:09:03;;;;;;;8.38;6.18;;;24.30;70.50;;;;;;5066676;28;20067;-74
2021/07/27 10:11:44;;;;;;;8.98;5.63;;;24.50;70.60;;;;;;5067998;28;20055;-74
2021/07/27 10:14:13;;;;;;;8.68;5.93;;;24.60;70.40;;;;;;5066788;28;20364;-73
2021/07/27 10:16:39;;;;;;;7.80;5.68;;;24.80;70.50;;;;;;5068710;28;20143;-73
2021/07/27 10:19:15;;;;;;;6.63;5.80;;;25.00;70.60;;;;;;5067785;28;20032;-73
2021/07/27 10:21:43;;;;;;;6.70;5.32;;;25.10;70.30;;;;;;5068185;28;20039;-73
2021/07/27 10:24:19;;;;;;;7.78;4.97;;;25.40;70.10;;;;;;5067783;28;20024;-73
2021/07/27 10:26:46;;;;;;;7.82;5.13;;;25.60;69.90;;;;;;5068597;28;20040;-74
2021/07/27 10:29:13;;;;;;;5.10;4.57;;;25.80;69.60;;;;;;5068385;28;20079;-74
2021/07/27 10:31:48;;;;;;;7.05;5.53;;;26.00;69.20;;;;;;5067671;28;20044;-74
2021/07/27 10:34:15;;;;;;;10.02;5.38;;;26.10;69.00;;;;;;5068251;28;20024;-74
2021/07/27 10:36:43;;;;;;;6.72;5.15;;;26.10;68.90;;;;;;5067539;28;20190;-74
2021/07/27 10:39:18;;;;;;;6.20;5.20;;;26.20;68.90;;;;;;5067502;28;20111;-74
2021/07/27 10:41:44;;;;;;;6.45;4.57;;;26.30;68.70;;;;;;5067876;28;20056;-76
2021/07/27 10:44:20;;;;;;;5.35;4.85;;;26.40;68.60;;;;;;5067465;28;20031;-74
2021/07/27 10:46:48;;;;;;;5.78;4.72;;;26.60;68.40;;;;;;5068368;28;20388;-79
2021/07/27 10:49:25;;;;;;;6.10;4.40;;;26.80;68.20;;;;;;5067658;28;20025;-74
2021/07/27 10:51:53;;;;;;;6.00;4.43;;;27.00;67.90;;;;;;5067923;28;20089;-74
2021/07/27 10:54:30;;;;;;;6.03;4.18;;;27.20;67.70;;;;;;5067265;28;20081;-74
2021/07/27 10:57:01;;;;;;;6.35;4.05;;;27.40;67.30;;;;;;5067729;28;20125;-73
2021/07/27 10:59:32;;;;;;;5.30;4.32;;;27.50;66.90;;;;;;5059338;28;20032;-73
2021/07/27 11:02:11;;;;;;;4.65;3.95;;;27.60;66.80;;;;;;5060710;28;20492;-73
2021/07/27 11:04:37;;;;;;;7.43;3.97;;;27.70;66.70;;;;;;5061273;28;20066;-79
2021/07/27 11:07:13;;;;;;;4.43;3.67;;;27.60;66.60;;;;;;5067008;28;20025;-73
2021/07/27 11:09:49;;;;;;;4.82;4.15;;;27.50;66.50;;;;;;5066168;28;20037;-74
2021/07/27 11:12:34;;;;;;;7.85;4.75;;;27.50;66.60;;;;;;5066039;28;20522;-74
2021/07/27 11:15:23;;;;;;;5.45;4.10;;;27.70;66.70;;;;;;5065980;28;20086;-74
2021/07/27 11:18:00;;;;;;;3.97;3.58;;;27.80;66.60;;;;;;5066987;28;20560;-74
2021/07/27 11:20:33;;;;;;;4.45;3.08;;;27.90;66.30;;;;;;5067112;28;20471;-73
2021/07/27 11:23:07;;;;;;;5.03;3.75;;;28.20;66.10;;;;;;5066564;28;20052;-74
2021/07/27 11:25:33;;;;;;;4.97;3.72;;;28.40;65.80;;;;;;5066979;28;20411;-73
2021/07/27 11:28:10;;;;;;;4.82;4.00;;;28.60;65.60;;;;;;5066808;28;20178;-74
2021/07/27 11:30:37;;;;;;;4.03;3.53;;;28.70;65.00;;;;;;5066638;28;20090;-74
2021/07/27 11:33:12;;;;;;;4.13;3.72;;;28.80;64.90;;;;;;5066719;28;20036;-73
2021/07/27 11:35:47;;;;;;;6.28;3.45;;;28.90;64.70;;;;;;5066842;28;20044;-74
2021/07/27 11:38:39;;;;;;;4.18;3.40;;;28.90;64.50;;;;;;5066093;28;20058;-76
2021/07/27 11:41:10;;;;;;;3.90;3.50;;;28.90;64.40;;;;;;5062067;28;20044;-74
2021/07/27 11:43:41;;;;;;;3.80;3.47;;;28.80;64.40;;;;;;5048801;28;20527;-75
2021/07/27 11:46:12;;;;;;;3.75;3.00;;;28.70;64.40;;;;;;5077151;28;20048;-74
2021/07/27 11:48:39;;;;;;;5.53;3.70;;;28.60;64.60;;;;;;5066148;28;20028;-74
2021/07/27 11:51:05;;;;;;;4.57;4.10;;;28.40;64.60;;;;;;5066498;28;20071;-73
2021/07/27 11:53:36;;;;;;;5.80;4.47;;;28.40;64.80;;;;;;5065548;28;20070;-78
2021/07/27 11:56:14;;;;;;;5.00;4.05;;;28.30;64.90;;;;;;5064942;28;20052;-74
2021/07/27 11:58:40;;;;;;;5.97;4.88;;;28.30;65.00;;;;;;5066186;28;20033;-74
2021/07/27 12:01:06;;;;;;;7.38;5.15;;;28.30;65.00;;;;;;5065127;28;20189;-74
2021/07/27 12:03:32;;;;;;;7.93;5.05;;;28.40;65.00;;;;;;5066382;28;20028;-75
2021/07/27 12:06:12;;;;;;;5.43;4.47;;;28.40;65.00;;;;;;5066707;28;20120;-74
2021/07/27 12:08:39;;;;;;;6.10;4.55;;;28.50;64.80;;;;;;5065822;28;20048;-74
2021/07/27 12:11:06;;;;;;;13.68;6.28;;;28.70;64.80;;;;;;5066124;28;20491;-77
2021/07/27 12:13:32;;;;;;;14.10;6.50;;;28.90;64.40;;;;;;5065840;28;20028;-74
2021/07/27 12:15:59;;;;;;;7.93;4.78;;;29.00;63.60;;;;;;5065153;28;20040;-75
2021/07/27 12:18:25;;;;;;;10.40;5.65;;;29.10;62.80;;;;;;5066429;28;20031;-74
2021/07/27 12:20:51;;;;;;;7.65;4.50;;;29.20;62.50;;;;;;5065189;28;20574;-75
2021/07/27 12:23:20;;;;;;;9.70;5.22;;;29.30;62.30;;;;;;5065879;28;20062;-75
2021/07/27 12:25:46;;;;;;;8.50;5.45;;;29.50;62.00;;;;;;5053415;28;20461;-77
2021/07/27 12:28:14;;;;;;;9.73;5.32;;;29.60;61.80;;;;;;5065024;28;20028;-73
2021/07/27 12:30:40;;;;;;;10.52;4.78;;;29.80;61.70;;;;;;5050507;28;20032;-76
2021/07/27 12:33:06;;;;;;;6.38;4.28;;;29.90;61.50;;;;;;5053024;28;20079;-80
2021/07/27 12:35:35;;;;;;;7.40;4.68;;;30.00;61.50;;;;;;5065335;28;20029;-79
2021/07/27 12:38:01;;;;;;;8.05;4.22;;;30.20;61.30;;;;;;5066216;28;20040;-77
2021/07/27 12:40:27;;;;;;;7.78;4.60;;;30.30;61.20;;;;;;5066556;28;20556;-79
2021/07/27 12:42:53;;;;;;;5.07;4.05;;;30.60;61.00;;;;;;5065223;28;20094;-77
2021/07/27 12:45:19;;;;;;;5.32;3.95;;;30.80;60.70;;;;;;5064875;28;20033;-75
2021/07/27 12:47:45;;;;;;;6.35;4.03;;;30.90;60.30;;;;;;5064571;28;20097;-78
2021/07/27 12:50:12;;;;;;;7.20;4.28;;;31.00;60.20;;;;;;5066401;28;20033;-78
2021/07/27 12:52:38;;;;;;;4.70;4.05;;;31.00;60.10;;;;;;5065787;28;20037;-78
2021/07/27 12:55:04;;;;;;;4.97;3.80;;;31.00;60.10;;;;;;5066569;28;20028;-82
2021/07/27 12:57:32;;;;;;;6.30;3.97;;;31.00;60.20;;;;;;5066151;28;20079;-76
2021/07/27 13:00:01;;;;;;;5.40;3.45;;;31.00;60.20;;;;;;5066269;28;20025;-77
2021/07/27 13:02:27;;;;;;;4.57;3.10;;;31.00;60.30;;;;;;5066192;28;20162;-75
2021/07/27 13:04:53;;;;;;;5.47;3.53;;;31.00;60.20;;;;;;5065591;28;20555;-76
2021/07/27 13:07:19;;;;;;;4.28;3.22;;;31.10;60.10;;;;;;5065617;28;20067;-73
2021/07/27 13:09:45;;;;;;;4.00;3.28;;;31.20;60.00;;;;;;5065190;28;20037;-79